createdAt,value
2018-06-16T00:00:29.182Z,21.33
2018-06-16T00:02:58.055Z,16.80
2018-06-16T00:05:26.825Z,17.30
2018-06-16T00:07:55.569Z,19.57
2018-06-16T00:10:24.350Z,15.67
2018-06-16T00:12:52.993Z,16.93
2018-06-16T00:15:21.723Z,14.80
2018-06-16T00:17:50.457Z,17.70
2018-06-16T00:20:19.219Z,14.53
2018-06-16T00:22:47.887Z,16.70
2018-06-16T00:25:16.235Z,15.00
2018-06-16T00:27:44.860Z,15.60
2018-06-16T00:30:13.583Z,18.50
2018-06-16T00:32:42.295Z,16.73
2018-06-16T00:35:10.916Z,17.83
2018-06-16T00:37:39.674Z,15.97
2018-06-16T00:40:08.375Z,15.03
2018-06-16T00:42:37.071Z,16.00
2018-06-16T00:45:05.822Z,15.83
2018-06-16T00:47:34.550Z,15.40
2018-06-16T00:50:03.230Z,16.87
2018-06-16T00:52:31.855Z,14.80
2018-06-16T00:55:00.519Z,16.97
2018-06-16T00:57:40.191Z,16.17
2018-06-16T01:00:08.980Z,15.97
2018-06-16T01:02:37.619Z,17.40
2018-06-16T01:05:06.333Z,15.97
2018-06-16T01:07:35.044Z,15.10
2018-06-16T01:10:03.934Z,16.43
2018-06-16T01:12:32.578Z,18.40
2018-06-16T01:15:01.302Z,17.20
2018-06-16T01:17:30.100Z,18.10
2018-06-16T01:19:59.551Z,19.23
2018-06-16T01:22:28.232Z,16.60
2018-06-16T01:24:56.969Z,16.67
2018-06-16T01:27:25.822Z,16.67
2018-06-16T01:29:54.506Z,15.67
2018-06-16T01:32:23.305Z,16.40
2018-06-16T01:34:52.029Z,18.10
2018-06-16T01:37:20.832Z,18.17
2018-06-16T01:39:49.554Z,16.13
2018-06-16T01:42:18.273Z,16.00
2018-06-16T01:44:46.990Z,17.70
2018-06-16T01:47:15.699Z,17.20
2018-06-16T01:49:44.428Z,17.77
2018-06-16T01:52:13.133Z,17.60
2018-06-16T01:54:41.867Z,20.00
2018-06-16T01:57:10.498Z,20.50
2018-06-16T01:59:39.158Z,20.10
2018-06-16T02:02:07.902Z,23.93
2018-06-16T02:04:36.611Z,20.27
2018-06-16T02:07:05.246Z,20.37
2018-06-16T02:09:33.893Z,23.07
2018-06-16T02:12:02.602Z,21.30
2018-06-16T02:14:31.978Z,22.63
2018-06-16T02:17:00.721Z,20.10
2018-06-16T02:19:29.444Z,20.70
2018-06-16T02:21:58.083Z,20.70
2018-06-16T02:24:26.754Z,20.20
2018-06-16T02:26:55.410Z,21.37
2018-06-16T02:29:24.030Z,20.77
2018-06-16T02:31:52.652Z,22.50
2018-06-16T02:34:20.935Z,21.20
2018-06-16T02:36:49.604Z,19.43
2018-06-16T02:39:18.302Z,21.00
2018-06-16T02:41:46.949Z,19.80
2018-06-16T02:44:15.634Z,21.37
2018-06-16T02:46:44.285Z,18.27
2018-06-16T02:49:12.945Z,20.57
2018-06-16T02:51:41.687Z,20.67
2018-06-16T02:54:10.439Z,20.50
2018-06-16T02:56:39.243Z,18.80
2018-06-16T02:59:20.087Z,19.40
2018-06-16T03:01:48.801Z,22.37
2018-06-16T03:04:17.505Z,20.87
2018-06-16T03:06:46.165Z,21.53
2018-06-16T03:09:14.783Z,24.30
2018-06-16T03:11:43.539Z,22.90
2018-06-16T03:14:12.305Z,24.00
2018-06-16T03:16:40.967Z,22.63
2018-06-16T03:19:09.786Z,19.63
2018-06-16T03:21:38.464Z,23.07
2018-06-16T03:24:07.119Z,22.40
2018-06-16T03:26:35.821Z,18.90
2018-06-16T03:29:04.479Z,23.33
2018-06-16T03:31:33.209Z,27.80
2018-06-16T03:34:01.911Z,24.60
2018-06-16T03:36:30.585Z,29.50
2018-06-16T03:38:59.265Z,25.00
2018-06-16T03:41:28.024Z,23.67
2018-06-16T03:43:56.807Z,20.73
2018-06-16T03:46:25.542Z,20.20
2018-06-16T03:48:54.185Z,23.60
2018-06-16T03:51:22.894Z,20.43
2018-06-16T03:53:51.599Z,23.17
2018-06-16T03:56:20.280Z,20.47
2018-06-16T03:58:48.896Z,23.03
2018-06-16T04:01:17.521Z,17.77
2018-06-16T04:03:46.225Z,19.73
2018-06-16T04:06:15.019Z,17.13
2018-06-16T04:08:43.690Z,15.97
2018-06-16T04:11:12.384Z,16.13
2018-06-16T04:13:41.064Z,18.67
2018-06-16T04:16:09.752Z,19.50
2018-06-16T04:18:38.506Z,17.20
2018-06-16T04:21:07.196Z,17.63
2018-06-16T04:23:35.903Z,16.47
2018-06-16T04:26:04.618Z,15.70
2018-06-16T04:28:33.274Z,15.40
2018-06-16T04:31:02.015Z,14.83
2018-06-16T04:33:30.699Z,14.73
2018-06-16T04:35:59.395Z,16.87
2018-06-16T04:38:28.087Z,13.60
2018-06-16T04:40:56.802Z,15.90
2018-06-16T04:43:25.494Z,15.10
2018-06-16T04:45:54.111Z,17.47
2018-06-16T04:48:22.737Z,14.90
2018-06-16T04:50:51.395Z,13.30
2018-06-16T04:53:20.133Z,12.60
2018-06-16T04:55:49.112Z,11.70
2018-06-16T04:58:18.867Z,13.00
2018-06-16T05:00:47.613Z,11.30
2018-06-16T05:03:16.309Z,13.23
2018-06-16T05:06:04.006Z,12.23
2018-06-16T05:08:32.715Z,12.20
2018-06-16T05:11:01.352Z,11.20
2018-06-16T05:13:30.022Z,11.00
2018-06-16T05:15:58.691Z,11.17
2018-06-16T05:18:27.399Z,11.67
2018-06-16T05:21:07.525Z,12.20
2018-06-16T05:23:36.447Z,11.00
2018-06-16T05:26:05.126Z,11.30
2018-06-16T05:28:33.885Z,10.63
2018-06-16T05:31:02.568Z,12.63
2018-06-16T05:33:30.897Z,12.17
2018-06-16T05:35:59.594Z,12.63
2018-06-16T05:38:28.348Z,11.20
2018-06-16T05:40:57.036Z,11.63
2018-06-16T05:43:25.843Z,13.03
2018-06-16T05:45:54.502Z,14.13
2018-06-16T05:48:23.275Z,10.87
2018-06-16T05:51:11.291Z,12.67
2018-06-16T05:53:40.073Z,12.03
2018-06-16T05:56:08.838Z,16.37
2018-06-16T05:58:37.478Z,16.30
2018-06-16T06:01:06.214Z,14.40
2018-06-16T06:06:37.118Z,20.57
2018-06-16T06:09:20.372Z,15.10
2018-06-16T06:11:48.971Z,15.37
2018-06-16T06:14:17.685Z,16.60
2018-06-16T06:16:46.401Z,14.37
2018-06-16T06:19:15.090Z,15.50
2018-06-16T06:21:43.787Z,16.23
2018-06-16T06:24:12.426Z,14.10
2018-06-16T06:26:48.240Z,18.20
2018-06-16T06:29:16.920Z,13.67
2018-06-16T06:31:45.691Z,12.47
2018-06-16T06:34:14.411Z,14.57
2018-06-16T06:36:43.097Z,11.83
2018-06-16T06:39:11.773Z,13.53
2018-06-16T06:41:40.551Z,12.80
2018-06-16T06:44:09.216Z,15.83
2018-06-16T06:46:37.833Z,13.80
2018-06-16T06:49:06.531Z,20.57
2018-06-16T06:51:35.238Z,14.50
2018-06-16T06:54:03.971Z,14.83
2018-06-16T06:56:32.749Z,13.27
2018-06-16T06:59:01.434Z,23.83
2018-06-16T07:01:30.093Z,12.87
2018-06-16T07:03:58.866Z,12.97
2018-06-16T07:06:27.540Z,13.10
2018-06-16T07:09:13.007Z,11.93
2018-06-16T07:11:41.703Z,14.33
2018-06-16T07:14:10.398Z,13.60
2018-06-16T07:16:39.109Z,12.37
2018-06-16T07:19:07.955Z,12.63
2018-06-16T07:21:37.041Z,11.33
2018-06-16T07:24:05.763Z,12.50
2018-06-16T07:26:34.414Z,8.50
2018-06-16T07:29:03.202Z,8.90
2018-06-16T07:31:31.873Z,13.17
2018-06-16T07:34:00.548Z,9.67
2018-06-16T07:36:29.400Z,9.50
2018-06-16T07:38:58.222Z,10.00
2018-06-16T07:41:26.968Z,10.90
2018-06-16T07:43:55.627Z,10.60
2018-06-16T07:46:24.283Z,9.53
2018-06-16T07:48:52.975Z,8.47
2018-06-16T07:51:21.642Z,8.87
2018-06-16T07:53:50.232Z,12.93
2018-06-16T07:56:18.968Z,8.97
2018-06-16T07:58:47.690Z,8.87
2018-06-16T08:01:16.394Z,8.70
2018-06-16T08:03:45.141Z,7.73
2018-06-16T08:06:13.779Z,6.77
2018-06-16T08:08:42.480Z,7.17
2018-06-16T08:11:11.251Z,7.60
2018-06-16T08:13:39.977Z,7.23
2018-06-16T08:16:08.587Z,5.77
2018-06-16T08:18:37.312Z,6.23
2018-06-16T08:21:06.091Z,6.60
2018-06-16T08:23:34.739Z,8.60
2018-06-16T08:26:03.471Z,4.90
2018-06-16T08:28:32.237Z,6.43
2018-06-16T08:31:00.942Z,5.30
2018-06-16T08:33:29.603Z,5.13
2018-06-16T08:35:58.352Z,6.17
2018-06-16T08:38:26.956Z,5.40
2018-06-16T08:40:55.645Z,5.60
2018-06-16T08:43:24.400Z,5.60
2018-06-16T08:45:52.652Z,4.40
2018-06-16T08:48:21.290Z,5.00
2018-06-16T08:50:49.981Z,4.93
2018-06-16T08:53:22.016Z,5.77
2018-06-16T08:55:50.752Z,4.70
2018-06-16T08:58:19.451Z,4.47
2018-06-16T09:00:48.077Z,4.33
2018-06-16T09:03:16.728Z,4.27
2018-06-16T09:05:45.368Z,4.00
2018-06-16T09:08:14.018Z,6.13
2018-06-16T09:10:42.693Z,7.10
2018-06-16T09:13:11.404Z,5.80
2018-06-16T09:15:40.154Z,3.50
2018-06-16T09:18:08.795Z,3.57
2018-06-16T09:20:37.539Z,3.93
2018-06-16T09:23:06.266Z,4.20
2018-06-16T09:25:35.061Z,4.30
2018-06-16T09:28:03.819Z,4.30
2018-06-16T09:30:32.558Z,3.33
2018-06-16T09:33:01.237Z,3.53
2018-06-16T09:35:30.033Z,4.43
2018-06-16T09:37:58.726Z,4.73
2018-06-16T09:40:27.454Z,4.27
2018-06-16T09:42:56.248Z,5.93
2018-06-16T09:45:25.141Z,4.80
2018-06-16T09:47:53.844Z,4.60
2018-06-16T09:50:22.704Z,5.20
2018-06-16T09:52:51.561Z,6.50
2018-06-16T09:58:13.842Z,9.33
2018-06-16T10:00:42.611Z,3.80
2018-06-16T10:03:12.207Z,6.53
2018-06-16T10:05:52.183Z,15.43
2018-06-16T10:08:20.869Z,4.63
2018-06-16T10:10:51.319Z,6.10
2018-06-16T10:13:20.065Z,7.77
2018-06-16T10:15:48.911Z,7.70
2018-06-16T10:18:17.714Z,6.63
2018-06-16T10:20:46.576Z,4.73
2018-06-16T10:23:15.226Z,4.50
2018-06-16T10:25:43.966Z,4.20
2018-06-16T10:28:12.726Z,3.80
2018-06-16T10:30:58.515Z,5.83
2018-06-16T10:33:27.179Z,4.03
2018-06-16T10:35:55.879Z,5.50
2018-06-16T10:38:24.609Z,3.77
2018-06-16T10:40:53.305Z,3.70
2018-06-16T10:43:22.021Z,4.50
2018-06-16T10:45:51.392Z,3.67
2018-06-16T10:48:30.436Z,3.63
2018-06-16T10:53:57.626Z,3.73
2018-06-16T10:56:44.420Z,4.00
2018-06-16T10:59:13.161Z,3.60
2018-06-16T11:04:36.753Z,4.07
2018-06-16T11:07:06.554Z,4.27
2018-06-16T11:09:35.289Z,3.97
2018-06-16T11:12:04.101Z,5.30
2018-06-16T11:14:32.813Z,3.70
2018-06-16T11:17:01.599Z,3.60
2018-06-16T11:19:30.206Z,3.10
2018-06-16T11:21:58.921Z,4.03
2018-06-16T11:24:27.691Z,6.13
2018-06-16T11:26:56.380Z,3.73
2018-06-16T11:29:26.324Z,3.10
2018-06-16T11:31:56.289Z,6.27
2018-06-16T11:34:26.560Z,3.37
2018-06-16T11:36:55.325Z,3.37
2018-06-16T11:39:24.086Z,5.47
2018-06-16T11:41:52.764Z,4.23
2018-06-16T11:44:21.451Z,4.20
2018-06-16T11:46:50.229Z,4.70
2018-06-16T11:49:18.931Z,5.13
2018-06-16T11:51:48.278Z,4.37
2018-06-16T11:54:18.122Z,4.40
2018-06-16T11:56:46.766Z,3.60
2018-06-16T11:59:15.418Z,3.60
2018-06-16T12:01:43.758Z,4.00
2018-06-16T12:04:12.495Z,3.67
2018-06-16T12:06:41.399Z,3.27
2018-06-16T12:09:12.169Z,4.57
2018-06-16T12:11:40.913Z,3.80
2018-06-16T12:14:10.764Z,3.80
2018-06-16T12:19:42.482Z,5.23
2018-06-16T12:22:11.263Z,3.70
2018-06-16T12:24:39.985Z,4.50
2018-06-16T12:27:08.770Z,3.53
2018-06-16T12:29:37.482Z,5.60
2018-06-16T12:32:06.508Z,3.80
2018-06-16T12:34:35.150Z,4.23
2018-06-16T12:37:03.862Z,3.70
2018-06-16T12:39:32.538Z,3.90
2018-06-16T12:42:01.166Z,4.33
2018-06-16T12:44:29.861Z,4.20
2018-06-16T12:46:58.894Z,4.70
2018-06-16T12:49:39.777Z,4.47
2018-06-16T12:52:08.507Z,4.63
2018-06-16T12:54:37.563Z,4.33
2018-06-16T12:57:06.249Z,4.37
2018-06-16T12:59:34.993Z,5.50
2018-06-16T13:02:03.742Z,5.07
2018-06-16T13:04:32.480Z,8.30
2018-06-16T13:07:01.225Z,4.07
2018-06-16T13:09:29.933Z,6.10
2018-06-16T13:15:08.159Z,4.23
2018-06-16T13:17:36.891Z,4.90
2018-06-16T13:20:05.654Z,4.10
2018-06-16T13:22:34.366Z,4.00
2018-06-16T13:25:03.095Z,4.40
2018-06-16T13:27:31.825Z,5.40
2018-06-16T13:30:00.541Z,4.60
2018-06-16T13:32:29.331Z,5.63
2018-06-16T13:34:58.278Z,4.33
2018-06-16T13:37:26.964Z,4.27
2018-06-16T13:39:55.618Z,4.20
2018-06-16T13:42:23.987Z,4.23
2018-06-16T13:44:52.674Z,4.03
2018-06-16T13:47:21.383Z,6.73
2018-06-16T13:49:50.047Z,4.20
2018-06-16T13:52:19.189Z,4.07
2018-06-16T13:54:48.030Z,3.80
2018-06-16T14:00:09.220Z,3.60
2018-06-16T14:02:37.851Z,3.53
2018-06-16T14:05:06.616Z,4.57
2018-06-16T14:07:35.356Z,4.53
2018-06-16T14:10:04.051Z,3.97
2018-06-16T14:12:32.669Z,5.33
2018-06-16T14:15:01.486Z,4.67
2018-06-16T14:17:29.886Z,4.60
2018-06-16T14:19:58.649Z,4.50
2018-06-16T14:22:27.399Z,4.50
2018-06-16T14:24:56.142Z,4.63
2018-06-16T14:27:24.839Z,4.33
2018-06-16T14:29:53.564Z,4.20
2018-06-16T14:32:22.260Z,3.90
2018-06-16T14:34:51.026Z,5.97
2018-06-16T14:37:19.777Z,4.00
2018-06-16T14:39:50.577Z,4.10
2018-06-16T14:42:19.336Z,6.03
2018-06-16T14:44:48.135Z,3.90
2018-06-16T14:47:16.929Z,4.03
2018-06-16T14:49:45.601Z,3.93
2018-06-16T14:52:14.379Z,3.60
2018-06-16T14:54:43.064Z,4.50
2018-06-16T14:57:11.770Z,3.83
2018-06-16T14:59:40.644Z,3.90
2018-06-16T15:02:09.363Z,4.20
2018-06-16T15:04:38.108Z,6.03
2018-06-16T15:07:06.876Z,3.80
2018-06-16T15:09:35.662Z,6.40
2018-06-16T15:12:04.401Z,4.97
2018-06-16T15:14:33.108Z,5.13
2018-06-16T15:17:01.770Z,6.37
2018-06-16T15:19:30.397Z,4.30
2018-06-16T15:21:59.188Z,4.30
2018-06-16T15:24:33.749Z,4.43
2018-06-16T15:27:02.515Z,4.30
2018-06-16T15:29:31.243Z,4.87
2018-06-16T15:31:59.884Z,4.47
2018-06-16T15:34:28.555Z,4.07
2018-06-16T15:36:57.175Z,4.00
2018-06-16T15:39:25.878Z,3.67
2018-06-16T15:41:54.559Z,4.10
2018-06-16T15:44:23.286Z,4.67
2018-06-16T15:47:16.518Z,4.07
2018-06-16T15:49:45.330Z,5.93
2018-06-16T15:52:13.995Z,4.23
2018-06-16T15:54:42.870Z,4.40
2018-06-16T15:57:11.652Z,3.73
2018-06-16T15:59:40.310Z,4.53
2018-06-16T16:02:19.962Z,3.03
2018-06-16T16:04:48.639Z,3.60
2018-06-16T16:07:17.314Z,3.23
2018-06-16T16:09:45.979Z,3.50
2018-06-16T16:12:14.629Z,3.83
2018-06-16T16:14:43.392Z,3.73
2018-06-16T16:17:13.830Z,5.37
2018-06-16T16:19:42.451Z,3.50
2018-06-16T16:22:11.079Z,9.43
2018-06-16T16:24:39.802Z,4.70
2018-06-16T16:27:08.527Z,4.07
2018-06-16T16:29:37.213Z,9.07
2018-06-16T16:32:05.959Z,3.60
2018-06-16T16:34:34.622Z,6.60
2018-06-16T16:37:03.317Z,4.30
2018-06-16T16:39:32.058Z,3.80
2018-06-16T16:42:00.756Z,3.90
2018-06-16T16:44:29.484Z,3.50
2018-06-16T16:46:58.159Z,3.67
2018-06-16T16:49:26.850Z,9.00
2018-06-16T16:51:55.573Z,4.40
2018-06-16T16:54:24.317Z,4.03
2018-06-16T16:56:52.961Z,5.90
2018-06-16T16:59:21.675Z,4.40
2018-06-16T17:01:50.383Z,4.10
2018-06-16T17:07:13.474Z,3.53
2018-06-16T17:09:42.244Z,7.93
2018-06-16T17:12:11.070Z,4.93
2018-06-16T17:14:39.755Z,6.40
2018-06-16T17:17:08.760Z,4.37
2018-06-16T17:19:37.461Z,5.00
2018-06-16T17:22:06.202Z,8.20
2018-06-16T17:24:34.967Z,4.73
2018-06-16T17:27:03.692Z,6.67
2018-06-16T17:29:32.394Z,7.57
2018-06-16T17:32:01.084Z,8.33
2018-06-16T17:34:29.753Z,4.93
2018-06-16T17:36:58.378Z,4.63
2018-06-16T17:39:27.031Z,5.27
2018-06-16T17:41:55.766Z,4.60
2018-06-16T17:44:24.562Z,5.23
2018-06-16T17:46:53.240Z,10.77
2018-06-16T17:49:21.903Z,6.10
2018-06-16T17:51:50.690Z,5.30
2018-06-16T17:54:19.788Z,4.73
2018-06-16T17:56:48.496Z,5.40
2018-06-16T17:59:17.138Z,5.93
2018-06-16T18:01:45.406Z,18.03
2018-06-16T18:04:17.094Z,15.77
2018-06-16T18:06:45.740Z,10.93
2018-06-16T18:09:14.354Z,6.77
2018-06-16T18:11:43.134Z,5.60
2018-06-16T18:14:11.825Z,5.33
2018-06-16T18:16:40.606Z,5.83
2018-06-16T18:19:09.387Z,6.50
2018-06-16T18:21:43.801Z,7.80
2018-06-16T18:24:17.215Z,5.97
2018-06-16T18:26:45.822Z,5.97
2018-06-16T18:29:38.562Z,8.13
2018-06-16T18:32:07.240Z,7.20
2018-06-16T18:34:36.034Z,6.20
2018-06-16T18:37:06.812Z,7.00
2018-06-16T18:39:41.877Z,32.77
2018-06-16T18:42:18.708Z,7.30
2018-06-16T18:44:47.479Z,7.97
2018-06-16T18:47:16.143Z,6.30
2018-06-16T18:52:59.948Z,9.60
2018-06-16T18:55:28.764Z,7.17
2018-06-16T18:57:57.481Z,7.10
2018-06-16T19:00:46.211Z,8.20
2018-06-16T19:03:14.978Z,7.20
2018-06-16T19:05:43.755Z,7.40
2018-06-16T19:08:19.388Z,7.57
2018-06-16T19:10:48.146Z,6.70
2018-06-16T19:13:16.948Z,6.40
2018-06-16T19:15:45.724Z,6.77
2018-06-16T19:18:14.363Z,6.70
2018-06-16T19:20:43.170Z,5.80
2018-06-16T19:23:11.824Z,6.00
2018-06-16T19:25:40.502Z,6.17
2018-06-16T19:28:09.163Z,6.70
2018-06-16T19:30:37.874Z,8.33
2018-06-16T19:33:06.639Z,6.30
2018-06-16T19:35:35.426Z,6.17
2018-06-16T19:38:04.231Z,6.33
2018-06-16T19:40:32.971Z,6.00
2018-06-16T19:43:01.677Z,6.27
2018-06-16T19:45:30.357Z,7.73
2018-06-16T19:47:59.072Z,6.93
2018-06-16T19:50:27.786Z,6.63
2018-06-16T19:52:56.526Z,6.70
2018-06-16T19:55:25.270Z,6.37
2018-06-16T19:57:54.092Z,7.60
2018-06-16T20:00:22.881Z,7.20
2018-06-16T20:08:51.064Z,6.70
2018-06-16T20:11:20.524Z,6.80
2018-06-16T20:13:49.360Z,6.37
2018-06-16T20:16:18.081Z,6.13
2018-06-16T20:18:46.819Z,7.17
2018-06-16T20:21:15.622Z,6.53
2018-06-16T20:23:44.363Z,6.80
2018-06-16T20:26:13.297Z,6.33
2018-06-16T20:28:41.931Z,7.00
2018-06-16T20:31:11.643Z,7.27
2018-06-16T20:33:40.382Z,7.40
2018-06-16T20:36:09.253Z,7.00
2018-06-16T20:38:37.959Z,6.90
2018-06-16T20:41:06.738Z,6.77
2018-06-16T20:43:35.370Z,7.07
2018-06-16T20:46:04.043Z,7.20
2018-06-16T20:48:32.786Z,7.33
2018-06-16T20:51:01.487Z,7.53
2018-06-16T20:53:30.229Z,7.13
2018-06-16T20:55:58.951Z,6.87
2018-06-16T20:58:27.751Z,7.93
2018-06-16T21:00:56.480Z,7.40
2018-06-16T21:03:25.175Z,8.27
2018-06-16T21:05:53.831Z,6.97
2018-06-16T21:08:22.484Z,7.80
2018-06-16T21:10:51.171Z,7.87
2018-06-16T21:13:19.883Z,6.90
2018-06-16T21:15:48.662Z,9.57
2018-06-16T21:18:17.716Z,7.50
2018-06-16T21:20:46.438Z,6.80
2018-06-16T21:23:15.179Z,8.43
2018-06-16T21:25:43.867Z,7.47
2018-06-16T21:28:12.610Z,8.20
2018-06-16T21:30:41.329Z,8.80
2018-06-16T21:33:10.062Z,6.97
2018-06-16T21:35:38.691Z,7.73
2018-06-16T21:38:07.358Z,7.20
2018-06-16T21:40:35.677Z,8.03
2018-06-16T21:43:04.373Z,10.20
2018-06-16T21:45:33.081Z,11.30
2018-06-16T21:48:01.769Z,7.33
2018-06-16T21:50:30.529Z,8.33
2018-06-16T21:52:59.238Z,7.20
2018-06-16T21:55:27.930Z,6.70
2018-06-16T21:57:56.707Z,6.97
2018-06-16T22:00:29.633Z,7.40
2018-06-16T22:02:58.340Z,7.57
2018-06-16T22:05:27.088Z,7.87
2018-06-16T22:07:59.633Z,7.90
2018-06-16T22:10:28.293Z,7.90
2018-06-16T22:12:57.048Z,7.47
2018-06-16T22:15:25.796Z,7.60
2018-06-16T22:17:54.521Z,7.60
2018-06-16T22:20:23.312Z,7.60
2018-06-16T22:22:51.581Z,7.63
2018-06-16T22:25:20.286Z,8.40
2018-06-16T22:27:49.319Z,8.40
2018-06-16T22:30:17.994Z,7.53
2018-06-16T22:32:46.657Z,9.53
2018-06-16T22:35:15.431Z,8.73
2018-06-16T22:37:44.207Z,10.00
2018-06-16T22:40:12.835Z,9.57
2018-06-16T22:42:41.595Z,9.87
2018-06-16T22:45:10.342Z,11.50
2018-06-16T22:47:39.083Z,9.63
2018-06-16T22:50:07.903Z,9.67
2018-06-16T22:52:36.683Z,9.57
2018-06-16T22:55:05.452Z,11.10
2018-06-16T22:57:34.210Z,11.17
2018-06-16T23:00:03.039Z,11.53
2018-06-16T23:02:31.727Z,10.10
2018-06-16T23:05:00.395Z,10.50
2018-06-16T23:07:29.153Z,9.33
2018-06-16T23:09:57.896Z,9.57
2018-06-16T23:12:26.561Z,10.67
2018-06-16T23:14:55.408Z,10.10
2018-06-16T23:17:24.074Z,9.23
2018-06-16T23:19:52.692Z,9.60
2018-06-16T23:22:21.332Z,10.50
2018-06-16T23:24:50.013Z,11.23
2018-06-16T23:27:18.675Z,11.10
2018-06-16T23:29:47.356Z,12.33
2018-06-16T23:32:16.008Z,12.63
2018-06-16T23:34:44.765Z,12.37
2018-06-16T23:37:13.408Z,12.13
2018-06-16T23:39:42.089Z,12.17
2018-06-16T23:42:10.727Z,11.03
2018-06-16T23:44:39.439Z,10.27
2018-06-16T23:47:08.215Z,11.20
2018-06-16T23:49:36.964Z,10.80
2018-06-16T23:52:05.782Z,10.20
2018-06-16T23:54:34.490Z,11.27
2018-06-16T23:57:03.534Z,10.23
2018-06-16T23:59:32.221Z,11.70
